createdAt,value
2022-10-18T00:00:17.870Z,71.20
2022-10-18T00:02:44.705Z,71.57
2022-10-18T00:05:13.533Z,70.32
2022-10-18T00:07:40.412Z,70.18
2022-10-18T00:10:08.538Z,69.83
2022-10-18T00:12:36.978Z,68.91
2022-10-18T00:15:06.495Z,68.10
2022-10-18T00:17:37.602Z,68.82
2022-10-18T00:20:06.355Z,69.87
2022-10-18T00:22:35.870Z,70.86
2022-10-18T00:25:03.428Z,70.56
2022-10-18T00:27:31.269Z,70.86
2022-10-18T00:29:59.257Z,71.06
2022-10-18T00:32:26.426Z,71.07
2022-10-18T00:34:53.358Z,70.76
2022-10-18T00:37:20.374Z,71.72
2022-10-18T00:39:47.225Z,71.68
2022-10-18T00:42:19.270Z,71.80
2022-10-18T00:44:46.239Z,72.07
2022-10-18T00:47:16.494Z,71.85
2022-10-18T00:49:50.269Z,71.82
2022-10-18T00:52:26.838Z,71.58
2022-10-18T00:54:57.665Z,71.32
2022-10-18T00:57:25.084Z,71.78
2022-10-18T00:59:53.432Z,71.89
2022-10-18T01:02:20.302Z,71.56
2022-10-18T01:04:48.183Z,71.57
2022-10-18T01:07:37.832Z,71.56
2022-10-18T01:10:17.897Z,71.73
2022-10-18T01:12:59.730Z,70.73
2022-10-18T01:15:34.131Z,70.69
2022-10-18T01:18:28.594Z,70.04
2022-10-18T01:21:04.646Z,70.97
2022-10-18T01:24:08.587Z,72.17
2022-10-18T01:26:54.439Z,71.95
2022-10-18T01:29:36.936Z,72.41
2022-10-18T01:32:07.387Z,73.31
2022-10-18T01:34:37.214Z,72.41
2022-10-18T01:37:09.859Z,71.67
2022-10-18T01:39:40.429Z,69.96
2022-10-18T01:42:10.725Z,71.03
2022-10-18T01:44:39.417Z,71.61
2022-10-18T01:47:09.523Z,71.96
2022-10-18T01:49:36.425Z,70.88
2022-10-18T01:52:03.370Z,70.91
2022-10-18T01:54:35.227Z,69.48
2022-10-18T01:57:18.227Z,70.36
2022-10-18T02:00:08.228Z,70.60
2022-10-18T02:02:47.775Z,70.47
2022-10-18T02:05:35.451Z,70.52
2022-10-18T02:08:22.897Z,70.88
2022-10-18T02:11:13.065Z,71.88
2022-10-18T02:13:48.277Z,71.89
2022-10-18T02:16:28.334Z,71.70
2022-10-18T02:19:02.931Z,73.04
2022-10-18T02:21:31.450Z,71.71
2022-10-18T02:24:00.867Z,71.32
2022-10-18T02:26:28.066Z,71.40
2022-10-18T02:28:55.304Z,72.87
2022-10-18T02:31:22.113Z,72.39
2022-10-18T02:33:57.266Z,71.73
2022-10-18T02:36:40.654Z,71.25
2022-10-18T02:39:14.738Z,71.14
2022-10-18T02:41:42.418Z,71.97
2022-10-18T02:44:09.859Z,70.37
2022-10-18T02:46:37.018Z,70.22
2022-10-18T02:49:04.008Z,70.39
2022-10-18T02:51:30.886Z,70.65
2022-10-18T02:53:57.788Z,71.43
2022-10-18T02:56:24.848Z,69.55
2022-10-18T02:58:51.689Z,70.68
2022-10-18T03:01:18.808Z,69.39
2022-10-18T03:03:46.310Z,69.70
2022-10-18T03:06:13.489Z,69.03
2022-10-18T03:08:40.335Z,69.66
2022-10-18T03:11:07.567Z,71.89
2022-10-18T03:13:34.634Z,71.12
2022-10-18T03:16:02.255Z,70.62
2022-10-18T03:18:29.435Z,70.67
2022-10-18T03:20:56.361Z,71.56
2022-10-18T03:23:23.176Z,72.17
2022-10-18T03:25:52.308Z,72.52
2022-10-18T03:28:19.839Z,72.82
2022-10-18T03:30:46.857Z,73.89
2022-10-18T03:33:13.846Z,73.77
2022-10-18T03:35:40.770Z,74.74
2022-10-18T03:38:10.323Z,75.27
2022-10-18T03:40:37.213Z,76.96
2022-10-18T03:43:04.055Z,77.47
2022-10-18T03:45:31.788Z,77.96
2022-10-18T03:47:58.724Z,77.33
2022-10-18T03:50:26.005Z,77.59
2022-10-18T03:52:54.347Z,77.42
2022-10-18T03:55:21.919Z,77.88
2022-10-18T03:57:48.836Z,77.88
2022-10-18T04:00:16.919Z,77.62
2022-10-18T04:02:43.807Z,77.06
2022-10-18T04:05:11.655Z,77.15
2022-10-18T04:07:39.039Z,77.01
2022-10-18T04:10:06.578Z,76.99
2022-10-18T04:12:34.754Z,76.42
2022-10-18T04:15:02.133Z,75.25
2022-10-18T04:17:30.256Z,75.51
2022-10-18T04:19:57.462Z,74.52
2022-10-18T04:22:24.514Z,75.50
2022-10-18T04:24:53.349Z,76.25
2022-10-18T04:27:20.433Z,76.94
2022-10-18T04:29:47.313Z,76.30
2022-10-18T04:32:14.560Z,76.20
2022-10-18T04:37:14.302Z,77.13
2022-10-18T04:39:49.898Z,78.12
2022-10-18T04:42:20.326Z,77.25
2022-10-18T04:44:47.539Z,77.25
2022-10-18T04:47:16.653Z,76.51
2022-10-18T04:49:44.288Z,77.36
2022-10-18T04:52:11.262Z,77.64
2022-10-18T04:54:38.125Z,78.04
2022-10-18T04:57:05.111Z,77.90
2022-10-18T04:59:32.911Z,77.36
2022-10-18T05:02:00.417Z,77.58
2022-10-18T05:04:28.479Z,76.60
2022-10-18T05:06:55.399Z,75.92
2022-10-18T05:09:24.664Z,75.65
2022-10-18T05:11:51.680Z,73.37
2022-10-18T05:14:18.766Z,71.52
2022-10-18T05:16:46.070Z,70.92
2022-10-18T05:19:14.442Z,69.44
2022-10-18T05:21:42.068Z,68.32
2022-10-18T05:24:11.990Z,67.55
2022-10-18T05:26:39.072Z,69.02
2022-10-18T05:29:07.094Z,69.18
2022-10-18T05:31:34.618Z,69.80
2022-10-18T05:34:03.787Z,70.17
2022-10-18T05:36:30.883Z,69.34
2022-10-18T05:39:00.974Z,69.00
2022-10-18T05:41:31.605Z,69.16
2022-10-18T05:43:58.889Z,69.18
2022-10-18T05:46:25.914Z,68.20
2022-10-18T05:48:52.870Z,69.39
2022-10-18T05:51:20.160Z,69.45
2022-10-18T05:53:48.009Z,70.27
2022-10-18T05:56:16.624Z,69.54
2022-10-18T05:58:43.524Z,70.47
2022-10-18T06:01:11.677Z,70.45
2022-10-18T06:03:42.462Z,70.40
2022-10-18T06:06:11.709Z,70.13
2022-10-18T06:08:41.316Z,70.54
2022-10-18T06:11:10.447Z,71.70
2022-10-18T06:13:45.361Z,70.53
2022-10-18T06:16:14.561Z,68.91
2022-10-18T06:18:46.465Z,67.79
2022-10-18T06:21:13.511Z,67.93
2022-10-18T06:23:43.008Z,68.29
2022-10-18T06:26:12.014Z,68.63
2022-10-18T06:28:40.955Z,67.91
2022-10-18T06:31:13.745Z,68.56
2022-10-18T06:33:42.095Z,67.53
2022-10-18T06:36:18.447Z,66.43
2022-10-18T06:38:46.398Z,64.81
2022-10-18T06:41:17.223Z,65.24
2022-10-18T06:43:50.259Z,65.60
2022-10-18T06:46:18.054Z,65.20
2022-10-18T06:48:45.562Z,64.29
2022-10-18T06:51:13.612Z,64.54
2022-10-18T06:53:44.522Z,63.48
2022-10-18T06:56:27.286Z,62.50
2022-10-18T06:58:54.292Z,61.40
2022-10-18T07:01:22.178Z,61.77
2022-10-18T07:03:51.373Z,61.27
2022-10-18T07:06:22.170Z,60.58
2022-10-18T07:08:50.924Z,60.81
2022-10-18T07:11:23.082Z,60.56
2022-10-18T07:13:50.913Z,60.11
2022-10-18T07:16:23.494Z,59.13
2022-10-18T07:18:51.893Z,58.72
2022-10-18T07:21:21.259Z,58.03
2022-10-18T07:23:51.974Z,57.69
2022-10-18T07:26:29.413Z,57.21
2022-10-18T07:29:01.921Z,56.86
2022-10-18T07:31:30.992Z,55.34
2022-10-18T07:34:00.330Z,55.55
2022-10-18T07:36:27.317Z,56.04
2022-10-18T07:38:56.047Z,56.88
2022-10-18T07:41:23.618Z,57.09
2022-10-18T07:43:53.791Z,58.23
2022-10-18T07:46:25.687Z,58.00
2022-10-18T07:48:56.771Z,57.94
2022-10-18T07:51:24.234Z,58.62
2022-10-18T07:53:52.272Z,59.48
2022-10-18T07:56:27.276Z,59.22
2022-10-18T07:58:56.317Z,59.33
2022-10-18T08:01:24.677Z,58.50
2022-10-18T08:03:53.966Z,58.72
2022-10-18T08:06:23.498Z,58.89
2022-10-18T08:08:50.808Z,60.04
2022-10-18T08:11:50.175Z,59.43
2022-10-18T08:14:17.528Z,59.23
2022-10-18T08:16:44.404Z,59.20
2022-10-18T08:19:12.230Z,57.58
2022-10-18T08:21:39.188Z,57.34
2022-10-18T08:24:08.190Z,57.33
2022-10-18T08:26:36.183Z,56.49
2022-10-18T08:29:21.143Z,55.30
2022-10-18T08:31:51.429Z,53.05
2022-10-18T08:34:19.896Z,52.85
2022-10-18T08:36:47.807Z,53.50
2022-10-18T08:39:15.211Z,52.44
2022-10-18T08:42:19.442Z,52.91
2022-10-18T08:44:52.886Z,52.75
2022-10-18T08:47:24.329Z,53.07
2022-10-18T08:49:56.543Z,52.95
2022-10-18T08:52:48.067Z,52.03
2022-10-18T08:55:37.146Z,50.78
2022-10-18T08:58:23.439Z,50.93
2022-10-18T09:00:53.950Z,50.04
2022-10-18T09:03:55.871Z,47.34
2022-10-18T09:06:40.201Z,47.75
2022-10-18T09:09:46.364Z,47.14
2022-10-18T09:12:28.068Z,46.73
2022-10-18T09:15:20.640Z,44.78
2022-10-18T09:18:00.004Z,45.15
2022-10-18T09:20:44.747Z,44.66
2022-10-18T09:23:21.427Z,43.50
2022-10-18T09:25:56.233Z,41.66
2022-10-18T09:28:52.509Z,40.77
2022-10-18T09:31:32.942Z,41.39
2022-10-18T09:34:07.104Z,41.50
2022-10-18T09:36:38.938Z,41.82
2022-10-18T09:39:11.975Z,42.49
2022-10-18T09:41:40.324Z,41.39
2022-10-18T09:44:16.710Z,39.58
2022-10-18T09:46:53.438Z,39.33
2022-10-18T09:49:44.095Z,42.15
2022-10-18T09:52:40.706Z,42.32
2022-10-18T09:55:22.014Z,43.66
2022-10-18T09:57:54.722Z,43.26
2022-10-18T10:00:28.324Z,43.36
2022-10-18T10:02:55.264Z,42.93
2022-10-18T10:05:22.605Z,42.65
2022-10-18T10:07:49.655Z,41.98
2022-10-18T10:10:27.300Z,41.86
2022-10-18T10:13:28.203Z,40.61
2022-10-18T10:15:58.899Z,38.10
2022-10-18T10:18:36.473Z,37.22
2022-10-18T10:21:13.653Z,36.73
2022-10-18T10:23:53.787Z,35.80
2022-10-18T10:26:31.653Z,34.98
2022-10-18T10:28:59.048Z,35.84
2022-10-18T10:31:27.761Z,36.09
2022-10-18T10:34:14.920Z,35.04
2022-10-18T10:36:52.251Z,34.18
2022-10-18T10:39:23.838Z,33.14
2022-10-18T10:42:00.141Z,33.83
2022-10-18T10:44:54.545Z,33.80
2022-10-18T10:47:37.004Z,33.95
2022-10-18T10:50:22.374Z,33.89
2022-10-18T10:52:49.834Z,33.67
2022-10-18T10:55:34.891Z,33.79
2022-10-18T10:58:04.601Z,34.30
2022-10-18T11:00:42.917Z,34.40
2022-10-18T11:03:30.006Z,34.41
2022-10-18T11:06:02.028Z,34.51
2022-10-18T11:08:38.932Z,34.06
2022-10-18T11:11:22.124Z,33.04
2022-10-18T11:14:07.342Z,33.37
2022-10-18T11:17:08.364Z,34.16
2022-10-18T11:20:01.384Z,34.42
2022-10-18T11:22:37.062Z,33.77
2022-10-18T11:25:06.159Z,33.13
2022-10-18T11:27:41.013Z,33.53
2022-10-18T11:30:26.227Z,33.50
2022-10-18T11:33:14.653Z,33.83
2022-10-18T11:36:10.295Z,33.57
2022-10-18T11:38:55.911Z,33.36
2022-10-18T11:41:33.903Z,33.01
2022-10-18T11:44:04.315Z,32.79
2022-10-18T11:47:23.884Z,32.97
2022-10-18T11:49:50.779Z,32.72
2022-10-18T11:52:26.602Z,33.55
2022-10-18T11:55:28.886Z,33.60
2022-10-18T11:58:17.479Z,33.33
2022-10-18T12:00:52.378Z,33.04
2022-10-18T12:03:38.761Z,33.88
2022-10-18T12:06:19.398Z,33.44
2022-10-18T12:31:02.918Z,32.80
2022-10-18T12:33:44.809Z,32.50
2022-10-18T12:36:27.238Z,32.55
2022-10-18T12:39:05.732Z,32.75
2022-10-18T12:41:36.269Z,32.55
2022-10-18T12:44:07.051Z,32.58
2022-10-18T12:46:50.357Z,32.10
2022-10-18T12:49:32.568Z,31.86
2022-10-18T12:52:28.924Z,32.20
2022-10-18T12:55:38.997Z,32.16
2022-10-18T12:58:28.839Z,32.46
2022-10-18T13:01:04.413Z,31.95
2022-10-18T13:03:49.887Z,32.58
2022-10-18T13:06:17.356Z,32.29
2022-10-18T13:08:48.228Z,32.91
2022-10-18T13:11:39.537Z,32.48
2022-10-18T13:15:05.838Z,32.76
2022-10-18T13:18:14.854Z,33.04
2022-10-18T13:20:57.735Z,33.88
2022-10-18T13:23:38.408Z,33.95
2022-10-18T13:26:30.633Z,33.62
2022-10-18T13:29:36.639Z,33.83
2022-10-18T13:32:29.561Z,33.88
2022-10-18T13:34:58.219Z,33.60
2022-10-18T13:37:32.671Z,34.27
2022-10-18T13:40:36.013Z,33.53
2022-10-18T13:43:41.112Z,33.23
2022-10-18T13:46:08.051Z,33.10
2022-10-18T13:51:51.051Z,33.01
2022-10-18T13:54:55.543Z,33.07
2022-10-18T13:58:01.094Z,31.86
2022-10-18T14:01:02.604Z,31.12
2022-10-18T14:03:55.782Z,30.84
2022-10-18T14:06:33.010Z,31.45
2022-10-18T14:09:43.651Z,31.74
2022-10-18T14:12:46.812Z,32.84
2022-10-18T14:18:35.430Z,32.40
2022-10-18T14:21:21.889Z,33.38
2022-10-18T14:23:50.919Z,34.07
2022-10-18T14:26:21.041Z,34.22
2022-10-18T14:29:07.535Z,33.77
2022-10-18T14:31:36.283Z,34.23
2022-10-18T14:34:05.431Z,34.42
2022-10-18T14:36:45.958Z,34.74
2022-10-18T14:39:29.368Z,35.05
2022-10-18T14:41:57.742Z,35.16
2022-10-18T14:44:32.221Z,38.08
2022-10-18T14:47:12.209Z,38.57
2022-10-18T14:49:47.128Z,39.78
2022-10-18T14:52:35.835Z,40.91
2022-10-18T14:55:04.175Z,41.80
2022-10-18T14:57:37.710Z,41.96
2022-10-18T15:00:09.134Z,41.90
2022-10-18T15:02:40.615Z,41.84
2022-10-18T15:05:17.445Z,41.91
2022-10-18T15:08:01.041Z,41.86
2022-10-18T15:10:33.391Z,42.24
2022-10-18T15:13:09.864Z,42.27
2022-10-18T15:15:38.249Z,42.59
2022-10-18T15:18:07.590Z,42.65
2022-10-18T15:20:42.718Z,42.77
2022-10-18T15:23:25.421Z,42.98
2022-10-18T15:26:02.972Z,43.68
2022-10-18T15:28:32.680Z,43.79
2022-10-18T15:31:25.153Z,43.92
2022-10-18T15:33:54.082Z,43.92
2022-10-18T15:36:31.412Z,44.10
2022-10-18T15:39:25.467Z,44.38
2022-10-18T15:41:53.656Z,44.39
2022-10-18T15:44:23.813Z,43.90
2022-10-18T15:47:21.761Z,44.27
2022-10-18T15:49:52.844Z,44.99
2022-10-18T15:52:37.848Z,44.95
2022-10-18T15:55:30.701Z,45.22
2022-10-18T15:58:14.596Z,45.04
2022-10-18T16:00:45.503Z,45.61
2022-10-18T16:03:12.767Z,45.57
2022-10-18T16:05:41.251Z,45.66
2022-10-18T16:08:19.625Z,46.08
2022-10-18T16:10:54.969Z,45.86
2022-10-18T16:13:22.533Z,45.95
2022-10-18T16:15:49.520Z,45.89
2022-10-18T16:18:19.813Z,46.71
2022-10-18T16:20:48.297Z,46.80
2022-10-18T16:23:25.057Z,46.26
2022-10-18T16:25:52.775Z,46.40
2022-10-18T16:28:25.521Z,47.28
2022-10-18T16:31:03.982Z,47.73
2022-10-18T16:33:31.597Z,48.62
2022-10-18T16:35:58.908Z,49.08
2022-10-18T16:38:34.203Z,49.35
2022-10-18T16:41:06.999Z,49.82
2022-10-18T16:43:35.131Z,50.20
2022-10-18T16:46:03.152Z,50.67
2022-10-18T16:48:30.667Z,50.98
2022-10-18T16:50:58.481Z,51.27
2022-10-18T16:53:26.332Z,51.31
2022-10-18T16:56:00.037Z,51.54
2022-10-18T16:58:28.933Z,52.48
2022-10-18T17:00:56.801Z,52.28
2022-10-18T17:03:24.909Z,52.06
2022-10-18T17:05:53.640Z,52.70
2022-10-18T17:08:25.808Z,52.51
2022-10-18T17:10:55.034Z,52.91
2022-10-18T17:13:23.481Z,53.68
2022-10-18T17:15:51.001Z,53.55
2022-10-18T17:18:26.504Z,54.14
2022-10-18T17:20:53.824Z,53.64
2022-10-18T17:23:21.905Z,53.83
2022-10-18T17:26:04.750Z,53.96
2022-10-18T17:28:34.343Z,54.63
2022-10-18T17:31:01.249Z,54.29
2022-10-18T17:33:28.138Z,54.63
2022-10-18T17:35:55.194Z,55.52
2022-10-18T17:38:22.405Z,55.74
2022-10-18T17:40:49.298Z,54.88
2022-10-18T17:43:17.356Z,55.10
2022-10-18T17:45:49.445Z,55.62
2022-10-18T17:48:17.970Z,56.76
2022-10-18T17:50:45.347Z,56.99
2022-10-18T17:53:13.138Z,58.03
2022-10-18T17:55:40.738Z,57.60
2022-10-18T17:58:07.739Z,57.39
2022-10-18T18:00:35.109Z,57.76
2022-10-18T18:03:02.480Z,57.82
2022-10-18T18:05:33.563Z,58.57
2022-10-18T18:08:04.231Z,58.58
2022-10-18T18:10:35.615Z,58.71
2022-10-18T18:13:03.309Z,59.30
2022-10-18T18:15:30.333Z,59.20
2022-10-18T18:17:58.198Z,59.14
2022-10-18T18:20:26.246Z,59.11
2022-10-18T18:22:53.392Z,58.89
2022-10-18T18:25:20.872Z,58.39
2022-10-18T18:27:49.240Z,58.63
2022-10-18T18:30:19.035Z,58.55
2022-10-18T18:32:47.299Z,59.21
2022-10-18T18:35:14.374Z,59.15
2022-10-18T18:37:41.406Z,58.44
2022-10-18T18:40:09.950Z,55.99
2022-10-18T18:42:37.019Z,56.06
2022-10-18T18:45:04.231Z,56.22
2022-10-18T18:47:35.423Z,56.49
2022-10-18T18:50:03.638Z,57.60
2022-10-18T18:52:31.834Z,57.73
2022-10-18T18:55:00.678Z,58.07
2022-10-18T18:57:28.313Z,59.45
2022-10-18T18:59:55.321Z,60.23
2022-10-18T19:02:22.420Z,61.20
2022-10-18T19:04:50.764Z,59.89
2022-10-18T19:07:17.677Z,60.21
2022-10-18T19:09:44.940Z,59.04
2022-10-18T19:12:12.005Z,59.27
2022-10-18T19:14:39.141Z,59.86
2022-10-18T19:17:07.959Z,59.40
2022-10-18T19:19:35.406Z,59.74
2022-10-18T19:22:05.066Z,60.53
2022-10-18T19:24:32.173Z,60.45
2022-10-18T19:27:03.397Z,61.01
2022-10-18T19:29:37.217Z,61.34
2022-10-18T19:32:08.831Z,61.23
2022-10-18T19:34:36.310Z,61.27
2022-10-18T19:37:04.109Z,61.66
2022-10-18T19:39:33.817Z,61.16
2022-10-18T19:42:03.677Z,60.17
2022-10-18T19:44:32.846Z,61.12
2022-10-18T19:47:01.153Z,60.93
2022-10-18T19:49:28.797Z,61.56
2022-10-18T19:51:57.053Z,61.54
2022-10-18T19:54:24.482Z,61.70
2022-10-18T19:56:51.871Z,61.32
2022-10-18T19:59:19.868Z,61.65
2022-10-18T20:01:47.788Z,62.59
2022-10-18T20:04:16.636Z,62.53
2022-10-18T20:06:45.503Z,63.55
2022-10-18T20:09:16.273Z,63.56
2022-10-18T20:11:47.019Z,62.50
2022-10-18T20:14:14.153Z,62.68
2022-10-18T20:16:41.060Z,62.30
2022-10-18T20:19:09.573Z,61.95
2022-10-18T20:21:37.437Z,60.58
2022-10-18T20:24:05.680Z,60.49
2022-10-18T20:26:35.854Z,60.25
2022-10-18T20:29:03.972Z,59.94
2022-10-18T20:31:34.608Z,59.90
2022-10-18T20:34:03.817Z,59.76
2022-10-18T20:36:32.350Z,59.83
2022-10-18T20:39:00.523Z,60.01
2022-10-18T20:41:32.514Z,60.17
2022-10-18T20:44:13.256Z,61.37
2022-10-18T20:46:41.278Z,61.93
2022-10-18T20:49:11.608Z,62.39
2022-10-18T20:51:39.429Z,63.14
2022-10-18T20:54:11.238Z,63.75
2022-10-18T20:56:39.344Z,65.04
2022-10-18T20:59:10.119Z,65.28
2022-10-18T21:01:38.813Z,64.51
2022-10-18T21:04:08.443Z,64.69
2022-10-18T21:06:37.960Z,64.16
2022-10-18T21:09:08.124Z,64.04
2022-10-18T21:11:37.780Z,65.03
2022-10-18T21:14:06.998Z,65.04
2022-10-18T21:16:36.083Z,65.18
2022-10-18T21:19:08.600Z,65.65
2022-10-18T21:21:37.223Z,65.57
2022-10-18T21:24:07.072Z,64.65
2022-10-18T21:26:35.807Z,64.16
2022-10-18T21:29:05.091Z,64.11
2022-10-18T21:31:36.342Z,63.77
2022-10-18T21:34:12.923Z,63.87
2022-10-18T21:36:41.119Z,64.00
2022-10-18T21:39:11.980Z,64.24
2022-10-18T21:41:39.172Z,63.41
2022-10-18T21:44:09.844Z,63.58
2022-10-18T21:46:42.961Z,63.70
2022-10-18T21:49:10.448Z,64.13
2022-10-18T21:51:37.505Z,64.34
2022-10-18T21:54:04.654Z,64.28
2022-10-18T21:56:35.388Z,63.93
2022-10-18T21:59:03.044Z,64.02
2022-10-18T22:01:32.980Z,64.27
2022-10-18T22:04:01.378Z,64.74
2022-10-18T22:06:32.183Z,64.80
2022-10-18T22:09:04.630Z,65.15
2022-10-18T22:11:38.029Z,65.70
2022-10-18T22:14:05.035Z,65.50
2022-10-18T22:16:31.923Z,67.17
2022-10-18T22:19:01.359Z,66.98
2022-10-18T22:21:29.377Z,67.34
2022-10-18T22:24:01.820Z,67.55
2022-10-18T22:26:32.627Z,67.73
2022-10-18T22:29:01.673Z,67.62
2022-10-18T22:31:31.520Z,68.33
2022-10-18T22:34:01.207Z,69.76
2022-10-18T22:36:28.087Z,69.34
2022-10-18T22:38:55.286Z,69.35
2022-10-18T22:41:22.562Z,70.05
2022-10-18T22:43:53.213Z,69.99
2022-10-18T22:46:20.541Z,70.46
2022-10-18T22:48:47.998Z,70.83
2022-10-18T22:51:15.090Z,71.65
2022-10-18T22:53:42.134Z,72.03
2022-10-18T22:56:14.467Z,71.26
2022-10-18T22:58:41.415Z,72.89
2022-10-18T23:01:10.871Z,72.72
2022-10-18T23:03:38.589Z,72.86
2022-10-18T23:06:06.472Z,72.42
2022-10-18T23:08:33.441Z,72.65
2022-10-18T23:11:00.523Z,73.84
2022-10-18T23:13:27.980Z,73.71
2022-10-18T23:16:04.488Z,75.16
2022-10-18T23:18:33.115Z,74.14
2022-10-18T23:21:06.229Z,74.59
2022-10-18T23:23:35.586Z,74.38
2022-10-18T23:26:04.961Z,74.14
2022-10-18T23:28:36.799Z,74.87
2022-10-18T23:31:12.522Z,74.44
2022-10-18T23:33:40.727Z,74.66
2022-10-18T23:36:09.330Z,74.45
2022-10-18T23:38:37.636Z,73.90
2022-10-18T23:41:06.341Z,73.08
2022-10-18T23:43:33.803Z,73.98
2022-10-18T23:46:00.855Z,74.33
2022-10-18T23:48:29.103Z,73.75
2022-10-18T23:50:57.467Z,74.17
2022-10-18T23:53:27.691Z,74.79
2022-10-18T23:56:00.371Z,73.47
2022-10-18T23:58:30.144Z,73.51
